MRBP weather

Barra de Parismina Airport
Pococi, Limon, Costa Rica

Public forecast

Using degrees Celsius for public forecast. Weather courtesy of forecast.io.

Closest aviation weather report (METAR) to Barra de Parismina Airport

Closest report is Limon International Airport, 28.2 nm (52.3 km) SE. Retrieved 2020/07/08 00:00 UTC (4 minutes ago):

MRLM 080000Z 00000KT CAVOK 29/24 A2985

Closest aviation forecast (TAF) to Barra de Parismina Airport

Closest forecast is Limon International Airport, 28.2 nm (52.3 km) SE. Retrieved 2020-07-08 00:18 UTC (0 seconds ago):

TAF MRLM 072300Z 0800/0824 25004KT 9999 FEW020 BKN100 TX31/0820Z TN22/0811Z TEMPO 0805/0813 DZ BKN015 BECMG 0815/0817 06005KT